Time;durP1;ratioP1;P1;durP2;ratioP2;P2;SDS_P1;SDS_P2;PMS_P1;PMS_P2;Temp;Humidity;BMP_temperature;BMP_pressure;BME280_temperature;BME280_humidity;BME280_pressure;Samples;Min_cycle;Max_cycle;Signal;HPM_P1;HPM_P2
2023/03/09 00:02:04;;;;;;;31.15;15.50;;;;;;;1.71;56.26;98778.63;5093720;28;20035;-59
2023/03/09 00:04:30;;;;;;;29.52;15.98;;;;;;;1.68;56.42;98773.50;5092277;28;20471;-58
2023/03/09 00:06:56;;;;;;;30.95;15.45;;;;;;;1.69;56.38;98778.66;5092544;28;20118;-57
2023/03/09 00:09:21;;;;;;;31.75;15.25;;;;;;;1.69;56.53;98778.66;5092206;28;20471;-56
2023/03/09 00:11:48;;;;;;;26.33;12.82;;;;;;;1.67;56.50;98775.19;5090142;28;20059;-57
2023/03/09 00:14:15;;;;;;;23.77;12.15;;;;;;;1.70;56.43;98779.50;5091980;28;20097;-58
2023/03/09 00:16:41;;;;;;;24.67;12.68;;;;;;;1.70;56.51;98770.00;5092872;28;20045;-59
2023/03/09 00:19:06;;;;;;;27.98;14.27;;;;;;;1.76;56.32;98768.22;5089751;28;20044;-58
2023/03/09 00:21:37;;;;;;;28.90;13.32;;;;;;;1.76;55.87;98769.09;5092084;28;20456;-58
2023/03/09 00:24:08;;;;;;;27.38;13.65;;;;;;;1.79;56.09;98763.00;5091416;28;20670;-57
2023/03/09 00:26:38;;;;;;;32.72;15.30;;;;;;;1.77;56.12;98762.16;5092557;28;20476;-57
2023/03/09 00:29:05;;;;;;;28.67;13.45;;;;;;;1.77;55.89;98759.59;5083922;28;20032;-59
2023/03/09 00:31:31;;;;;;;27.50;13.00;;;;;;;1.69;56.36;98762.25;5088789;28;20064;-59
2023/03/09 00:33:57;;;;;;;34.03;16.63;;;;;;;1.68;56.28;98755.38;5091078;28;20539;-58
2023/03/09 00:36:23;;;;;;;36.63;15.10;;;;;;;1.65;56.17;98753.66;5092252;28;20047;-58
2023/03/09 00:38:53;;;;;;;41.65;16.42;;;;;;;1.67;56.07;98758.81;5085591;28;20036;-56
2023/03/09 00:41:20;;;;;;;36.75;16.27;;;;;;;1.69;56.20;98757.94;5079520;28;20471;-58
2023/03/09 00:43:45;;;;;;;42.03;19.02;;;;;;;1.72;56.28;98768.25;5091574;28;20036;-58
2023/03/09 00:46:11;;;;;;;39.53;17.33;;;;;;;1.73;56.45;98764.78;5089875;28;20032;-57
2023/03/09 00:48:37;;;;;;;37.92;15.68;;;;;;;1.75;56.59;98763.91;5090269;28;20055;-58
2023/03/09 00:51:03;;;;;;;29.35;13.18;;;;;;;1.81;56.34;98767.28;5090987;28;20483;-57
2023/03/09 00:53:29;;;;;;;30.30;12.60;;;;;;;1.86;56.45;98767.22;5090609;28;20127;-57
2023/03/09 00:55:54;;;;;;;25.55;12.30;;;;;;;1.80;56.75;98763.00;5091387;28;20027;-58
2023/03/09 00:58:20;;;;;;;24.15;11.15;;;;;;;1.86;56.37;98769.81;5089710;28;20056;-58
2023/03/09 01:00:45;;;;;;;24.85;10.93;;;;;;;1.94;56.38;98760.22;5089862;28;20040;-59
2023/03/09 01:03:11;;;;;;;24.50;10.73;;;;;;;2.05;56.04;98768.72;5089020;28;20039;-57
2023/03/09 01:05:37;;;;;;;19.38;9.52;;;;;;;2.01;55.98;98769.63;5086450;28;20028;-58
2023/03/09 01:08:03;;;;;;;20.08;9.68;;;;;;;2.17;55.57;98771.16;5076178;28;20131;-57
2023/03/09 01:10:29;;;;;;;21.65;9.98;;;;;;;2.25;55.40;98767.59;5083445;28;20116;-57
2023/03/09 01:12:55;;;;;;;22.52;10.35;;;;;;;2.28;55.34;98765.81;5093910;28;20112;-57
2023/03/09 01:15:21;;;;;;;17.80;9.40;;;;;;;2.25;55.43;98760.69;5094227;28;20071;-59
2023/03/09 01:17:47;;;;;;;18.55;9.75;;;;;;;2.33;54.99;98760.56;5095599;28;20040;-58
2023/03/09 01:20:13;;;;;;;17.73;8.65;;;;;;;2.35;55.06;98766.56;5094336;28;20032;-58
2023/03/09 01:22:39;;;;;;;18.85;8.75;;;;;;;2.49;54.80;98762.06;5094228;28;20124;-57
2023/03/09 01:25:05;;;;;;;17.40;8.57;;;;;;;2.49;54.55;98762.06;5095428;28;20071;-57
2023/03/09 01:27:32;;;;;;;18.50;8.27;;;;;;;2.60;54.42;98770.53;5096742;28;20060;-58
2023/03/09 01:29:57;;;;;;;20.15;8.65;;;;;;;2.66;54.25;98770.44;5096567;28;20043;-58
2023/03/09 01:32:25;;;;;;;17.42;8.65;;;;;;;2.73;54.05;98766.00;5097092;28;20411;-58
2023/03/09 01:34:51;;;;;;;18.60;9.00;;;;;;;2.77;53.69;98759.91;5089695;28;20055;-57
2023/03/09 01:37:16;;;;;;;15.63;7.93;;;;;;;2.70;53.61;98761.72;5087126;28;20052;-58
2023/03/09 01:39:42;;;;;;;15.82;8.10;;;;;;;2.86;53.23;98759.75;5094816;28;20486;-58
2023/03/09 01:42:08;;;;;;;19.55;8.50;;;;;;;2.90;53.21;98761.41;5093222;28;20036;-58
2023/03/09 01:44:34;;;;;;;15.68;8.25;;;;;;;2.99;52.96;98754.34;5095307;28;20035;-58
2023/03/09 01:46:59;;;;;;;14.63;8.13;;;;;;;3.02;52.99;98762.94;5094944;28;20044;-57
2023/03/09 01:49:50;;;;;;;13.15;7.05;;;;;;;3.02;52.83;98765.53;5095738;28;20036;-57
2023/03/09 01:52:25;;;;;;;17.77;8.20;;;;;;;3.10;52.44;98755.88;5094460;28;20387;-58
2023/03/09 01:55:01;;;;;;;16.90;8.15;;;;;;;3.23;52.42;98761.69;5093954;28;20164;-57
2023/03/09 01:57:42;;;;;;;16.60;7.57;;;;;;;3.32;52.07;98769.34;5089239;28;20072;-58
2023/03/09 02:00:18;;;;;;;15.30;7.35;;;;;;;3.37;52.14;98764.91;5094315;28;20044;-58
2023/03/09 02:02:48;;;;;;;15.25;7.55;;;;;;;3.48;51.75;98762.13;5082059;28;20483;-57
2023/03/09 02:05:19;;;;;;;15.35;7.05;;;;;;;3.52;51.42;98768.97;5085000;28;20024;-59
2023/03/09 02:07:48;;;;;;;14.48;6.85;;;;;;;3.48;51.57;98759.53;5092769;28;20032;-57
2023/03/09 02:10:30;;;;;;;16.83;7.30;;;;;;;3.56;51.47;98759.41;5092225;28;20028;-57
2023/03/09 02:13:01;;;;;;;22.00;8.48;;;;;;;3.48;51.62;98763.88;5091351;28;20040;-57
2023/03/09 02:15:27;;;;;;;20.20;8.10;;;;;;;3.47;51.66;98747.41;5088265;28;20111;-56
2023/03/09 02:17:52;;;;;;;18.08;9.18;;;;;;;3.52;51.74;98750.81;5093994;28;20092;-59
2023/03/09 02:20:18;;;;;;;18.45;8.30;;;;;;;3.56;51.31;98746.41;5092858;28;20047;-57
2023/03/09 02:22:44;;;;;;;17.10;8.18;;;;;;;3.51;51.18;98750.81;5094085;28;20025;-58
2023/03/09 02:25:37;;;;;;;18.23;8.10;;;;;;;3.49;50.78;98756.06;5107094;28;20042;-58
2023/03/09 02:28:05;;;;;;;17.75;7.50;;;;;;;3.51;50.97;98751.69;5091502;28;20044;-57
2023/03/09 02:30:35;;;;;;;19.90;7.53;;;;;;;3.50;51.11;98754.31;5088305;28;20036;-57
2023/03/09 02:33:25;;;;;;;16.73;7.18;;;;;;;3.50;50.69;98755.16;5082627;28;20040;-57
2023/03/09 02:35:54;;;;;;;12.88;5.68;;;;;;;3.48;51.07;98762.13;5094187;28;20093;-57
2023/03/09 02:38:19;;;;;;;11.98;6.07;;;;;;;3.54;50.94;98751.63;5094291;28;20035;-57
2023/03/09 02:40:46;;;;;;;12.50;5.80;;;;;;;3.45;50.94;98755.25;5094193;28;20036;-57
2023/03/09 02:43:12;;;;;;;12.13;5.70;;;;;;;3.46;50.90;98754.34;5092788;28;20031;-58
2023/03/09 02:45:38;;;;;;;13.40;6.22;;;;;;;3.45;50.83;98759.59;5081731;28;20044;-57
2023/03/09 02:48:04;;;;;;;13.27;5.80;;;;;;;3.45;50.83;98759.59;5087537;28;20047;-58
2023/03/09 02:50:29;;;;;;;11.95;5.18;;;;;;;3.43;51.07;98761.34;5093967;28;20042;-57
2023/03/09 02:52:55;;;;;;;12.13;5.72;;;;;;;3.39;50.99;98765.75;5092256;28;20032;-58
2023/03/09 02:55:20;;;;;;;14.20;5.80;;;;;;;3.39;50.90;98754.50;5093599;28;20464;-58
2023/03/09 02:57:46;;;;;;;13.95;6.07;;;;;;;3.44;50.84;98765.66;5091001;28;20024;-58
2023/03/09 03:00:13;;;;;;;11.63;5.28;;;;;;;3.40;50.81;98770.06;5080393;28;20054;-58
2023/03/09 03:02:39;;;;;;;13.68;5.38;;;;;;;3.40;50.82;98770.06;5088730;28;20028;-58
2023/03/09 03:05:06;;;;;;;15.57;5.93;;;;;;;3.33;50.83;98768.44;5093147;28;20036;-56
2023/03/09 03:07:32;;;;;;;14.10;6.03;;;;;;;3.38;50.57;98773.56;5088294;28;20055;-58
2023/03/09 03:09:57;;;;;;;12.05;5.97;;;;;;;3.36;50.54;98775.34;5093281;28;20471;-58
2023/03/09 03:12:23;;;;;;;11.30;5.80;;;;;;;3.32;50.65;98773.69;5089876;28;20036;-58
2023/03/09 03:14:48;;;;;;;11.50;5.63;;;;;;;3.33;50.85;98780.59;5085043;28;20074;-57
2023/03/09 03:17:14;;;;;;;13.07;5.80;;;;;;;3.40;50.59;98784.78;5087988;28;20040;-58
2023/03/09 03:19:39;;;;;;;16.10;6.40;;;;;;;3.42;50.64;98793.38;5087949;28;20032;-58
2023/03/09 03:22:05;;;;;;;15.35;6.18;;;;;;;3.40;50.47;98789.97;5088819;28;20040;-57
2023/03/09 03:24:35;;;;;;;14.43;5.45;;;;;;;3.38;50.77;98796.94;5090181;28;20028;-57
2023/03/09 03:27:01;;;;;;;10.75;5.28;;;;;;;3.43;50.76;98797.69;5086138;28;20044;-57
2023/03/09 03:29:26;;;;;;;12.63;5.82;;;;;;;3.41;50.60;98792.53;5080899;28;20032;-57
2023/03/09 03:31:52;;;;;;;15.68;5.90;;;;;;;3.38;50.63;98787.41;5088688;28;20081;-57
2023/03/09 03:34:17;;;;;;;12.88;5.60;;;;;;;3.39;50.70;98793.44;5089344;28;20051;-57
2023/03/09 03:36:43;;;;;;;11.00;5.32;;;;;;;3.29;50.63;98797.09;5090391;28;20060;-57
2023/03/09 03:39:08;;;;;;;12.50;6.38;;;;;;;3.24;50.80;98792.00;5091351;28;20052;-57
2023/03/09 03:41:34;;;;;;;11.95;4.90;;;;;;;3.11;50.88;98793.06;5085035;28;20044;-57
2023/03/09 03:43:59;;;;;;;10.30;4.88;;;;;;;3.09;51.04;98793.09;5086006;28;20046;-57
2023/03/09 03:46:25;;;;;;;12.15;4.85;;;;;;;3.10;50.79;98792.22;5092691;28;20032;-56
2023/03/09 03:48:50;;;;;;;12.10;5.50;;;;;;;3.14;50.70;98799.06;5092308;28;20024;-57
2023/03/09 03:51:16;;;;;;;10.02;5.07;;;;;;;3.15;50.67;98802.50;5093076;28;20032;-56
2023/03/09 03:53:42;;;;;;;11.20;5.40;;;;;;;3.16;50.66;98799.06;5093391;28;20077;-57
2023/03/09 03:56:08;;;;;;;11.20;5.13;;;;;;;3.08;50.83;98804.38;5082739;28;20040;-57
2023/03/09 03:58:34;;;;;;;10.82;5.03;;;;;;;3.10;50.60;98802.59;5089243;28;20035;-57
2023/03/09 04:01:00;;;;;;;11.40;5.15;;;;;;;3.08;50.52;98796.59;5090559;28;20445;-58
2023/03/09 04:03:25;;;;;;;8.57;4.60;;;;;;;3.04;50.76;98800.13;5092190;28;20062;-58
2023/03/09 04:05:50;;;;;;;11.73;4.70;;;;;;;3.03;50.62;98800.97;5092549;28;20040;-58
2023/03/09 04:08:16;;;;;;;10.40;5.18;;;;;;;2.96;50.79;98801.97;5093648;28;20056;-57
2023/03/09 04:10:41;;;;;;;10.98;5.28;;;;;;;2.94;50.89;98796.78;5092768;28;20032;-58
2023/03/09 04:13:07;;;;;;;8.15;4.03;;;;;;;2.94;51.18;98798.53;5092564;28;20039;-57
2023/03/09 04:15:33;;;;;;;9.38;4.57;;;;;;;2.82;51.52;98797.00;5092565;28;20040;-58
2023/03/09 04:17:59;;;;;;;11.00;5.70;;;;;;;2.76;51.43;98804.88;5092287;28;20192;-57
2023/03/09 04:20:25;;;;;;;12.63;5.32;;;;;;;2.67;51.61;98792.03;5092546;28;20043;-58
2023/03/09 04:22:50;;;;;;;11.23;5.25;;;;;;;2.61;51.45;98803.38;5084598;28;20048;-57
2023/03/09 04:25:16;;;;;;;10.32;4.30;;;;;;;2.53;51.95;98799.19;5082315;28;20071;-57
2023/03/09 04:27:42;;;;;;;10.13;4.32;;;;;;;2.54;52.02;98793.94;5091561;28;20437;-57
2023/03/09 04:30:09;;;;;;;13.30;5.03;;;;;;;2.53;51.96;98794.84;5060417;28;20071;-57
2023/03/09 04:32:35;;;;;;;14.38;5.53;;;;;;;2.55;52.00;98802.59;5092951;28;20043;-58
2023/03/09 04:35:01;;;;;;;8.38;4.25;;;;;;;2.54;52.06;98812.09;5090954;28;20044;-57
2023/03/09 04:37:26;;;;;;;10.18;5.03;;;;;;;2.57;51.77;98812.06;5092427;28;20044;-58
2023/03/09 04:39:52;;;;;;;9.30;5.18;;;;;;;2.60;51.94;98806.84;5092175;28;20456;-57
2023/03/09 04:42:17;;;;;;;13.95;5.65;;;;;;;2.53;51.90;98799.19;5073689;28;20036;-58
2023/03/09 04:44:43;;;;;;;13.65;6.18;;;;;;;2.57;51.86;98808.63;5090722;28;20077;-58
2023/03/09 04:47:12;;;;;;;16.45;5.90;;;;;;;2.44;51.82;98807.94;5074531;28;20094;-58
2023/03/09 04:49:39;;;;;;;11.20;5.30;;;;;;;2.42;52.14;98807.09;5076530;28;20039;-59
2023/03/09 04:52:04;;;;;;;12.52;5.43;;;;;;;2.39;52.14;98801.94;5086937;28;20036;-57
2023/03/09 04:54:30;;;;;;;11.48;5.57;;;;;;;2.44;51.74;98802.75;5091943;28;20109;-57
2023/03/09 04:56:55;;;;;;;11.10;5.30;;;;;;;2.55;51.85;98802.59;5096411;28;20028;-58
2023/03/09 04:59:21;;;;;;;12.75;5.97;;;;;;;2.51;51.52;98808.69;5078771;28;20040;-58
2023/03/09 05:01:46;;;;;;;11.35;5.80;;;;;;;2.59;51.68;98799.91;5096325;28;20040;-58
2023/03/09 05:04:12;;;;;;;12.30;6.13;;;;;;;2.59;51.38;98786.97;5083191;28;20036;-58
2023/03/09 05:06:37;;;;;;;15.68;7.45;;;;;;;2.62;51.33;98781.72;5076436;28;20563;-58
2023/03/09 05:09:04;;;;;;;17.92;7.88;;;;;;;2.68;51.22;98789.44;5076257;28;20111;-58
2023/03/09 05:11:31;;;;;;;16.10;7.18;;;;;;;2.76;51.13;98791.91;5076206;28;20064;-58
2023/03/09 05:13:57;;;;;;;13.55;6.57;;;;;;;2.76;51.19;98804.03;5074056;28;20036;-57
2023/03/09 05:16:23;;;;;;;15.70;7.03;;;;;;;2.79;50.99;98802.22;5074363;28;20040;-58
2023/03/09 05:18:52;;;;;;;14.57;6.13;;;;;;;2.80;51.06;98800.50;5062499;28;20493;-58
2023/03/09 05:21:18;;;;;;;15.63;6.90;;;;;;;2.86;50.97;98797.81;5068692;28;20028;-58
2023/03/09 05:23:44;;;;;;;17.10;8.30;;;;;;;2.91;50.81;98795.97;5094628;28;20100;-57
2023/03/09 05:26:10;;;;;;;17.15;7.72;;;;;;;2.83;50.83;98797.84;5074536;28;20123;-58
2023/03/09 05:28:37;;;;;;;17.70;8.20;;;;;;;2.91;50.95;98791.69;5079644;28;20082;-58
2023/03/09 05:31:06;;;;;;;14.60;8.13;;;;;;;2.95;50.73;98797.66;5096027;28;20032;-59
2023/03/09 05:33:32;;;;;;;18.75;8.88;;;;;;;3.01;50.62;98797.56;5095501;28;20119;-58
2023/03/09 05:35:57;;;;;;;19.20;9.35;;;;;;;3.06;50.45;98803.53;5094093;28;20197;-58
2023/03/09 05:38:23;;;;;;;20.90;10.65;;;;;;;3.09;50.56;98806.06;5096087;28;20028;-60
2023/03/09 05:40:48;;;;;;;21.35;11.40;;;;;;;3.18;50.51;98795.53;5094591;28;20032;-58
2023/03/09 05:43:14;;;;;;;20.08;10.25;;;;;;;3.24;50.39;98798.94;5091683;28;20028;-62
2023/03/09 05:45:39;;;;;;;25.65;12.18;;;;;;;3.35;50.18;98800.47;5092777;28;20063;-58
2023/03/09 05:48:05;;;;;;;29.13;12.55;;;;;;;3.40;50.15;98798.63;5085160;28;20410;-58
2023/03/09 05:50:31;;;;;;;32.22;13.18;;;;;;;3.51;50.00;98795.84;5089326;28;20455;-58
2023/03/09 05:52:57;;;;;;;28.98;12.90;;;;;;;3.57;49.88;98806.09;5093210;28;20050;-57
2023/03/09 05:55:22;;;;;;;33.30;13.38;;;;;;;3.61;49.76;98807.75;5095616;28;20239;-58
2023/03/09 05:57:48;;;;;;;29.92;12.50;;;;;;;3.62;49.93;98809.47;5091903;28;20048;-58
2023/03/09 06:00:14;;;;;;;18.80;9.55;;;;;;;3.79;49.67;98808.28;5092411;28;20036;-57
2023/03/09 06:02:39;;;;;;;23.67;10.32;;;;;;;3.81;49.67;98811.72;5093000;28;20039;-58
2023/03/09 06:05:05;;;;;;;22.60;10.75;;;;;;;3.85;49.55;98818.56;5093577;28;20044;-58
2023/03/09 06:07:31;;;;;;;22.05;10.13;;;;;;;3.93;49.45;98812.34;5093262;28;20173;-58
2023/03/09 06:09:56;;;;;;;22.23;9.98;;;;;;;4.02;49.38;98813.88;5074830;28;20043;-58
2023/03/09 06:12:22;;;;;;;19.00;8.93;;;;;;;4.18;49.10;98824.84;5091099;28;20498;-58
2023/03/09 06:14:48;;;;;;;20.10;10.30;;;;;;;4.21;49.10;98829.97;5093834;28;20043;-58
2023/03/09 06:17:15;;;;;;;18.50;9.77;;;;;;;4.33;48.78;98832.31;5093421;28;20387;-58
2023/03/09 06:19:40;;;;;;;22.48;10.27;;;;;;;4.47;48.82;98834.66;5092794;28;20122;-58
2023/03/09 06:22:06;;;;;;;22.00;9.75;;;;;;;4.52;48.62;98838.00;5091455;28;20739;-58
2023/03/09 06:24:31;;;;;;;16.83;9.35;;;;;;;4.61;48.54;98836.94;5092896;28;20028;-59
2023/03/09 06:26:58;;;;;;;14.65;7.63;;;;;;;4.63;48.42;98836.03;5093601;28;20047;-59
2023/03/09 06:29:25;;;;;;;14.32;7.82;;;;;;;4.69;48.48;98835.88;5073447;28;20032;-59
2023/03/09 06:31:50;;;;;;;15.43;7.57;;;;;;;4.72;48.34;98834.97;5074573;28;20029;-58
2023/03/09 06:34:16;;;;;;;25.73;13.10;;;;;;;4.89;48.13;98831.97;5073673;28;20037;-59
2023/03/09 06:36:42;;;;;;;29.80;14.93;;;;;;;4.89;47.91;98835.41;5073329;28;20053;-59
2023/03/09 06:39:07;;;;;;;33.72;15.93;;;;;;;5.03;47.83;98845.53;5074602;28;20098;-59
2023/03/09 06:41:33;;;;;;;21.02;11.05;;;;;;;5.02;48.00;98841.19;5074564;28;20044;-59
2023/03/09 06:43:58;;;;;;;18.48;8.70;;;;;;;5.07;47.89;98841.94;5074691;28;20153;-59
2023/03/09 06:46:25;;;;;;;16.50;7.93;;;;;;;5.21;47.72;98849.41;5074732;28;20039;-59
2023/03/09 06:48:50;;;;;;;18.55;10.85;;;;;;;5.43;47.30;98865.38;5074529;28;20515;-59
2023/03/09 06:51:17;;;;;;;19.67;10.73;;;;;;;5.62;46.94;98853.56;5074419;28;20067;-58
2023/03/09 06:53:43;;;;;;;22.95;12.88;;;;;;;5.80;46.82;98854.00;5074238;28;20032;-58
2023/03/09 06:56:09;;;;;;;32.03;16.45;;;;;;;5.96;46.32;98855.34;5074412;28;20052;-58
2023/03/09 06:58:34;;;;;;;34.63;17.25;;;;;;;6.10;45.96;98852.34;5056629;28;20034;-59
2023/03/09 07:01:06;;;;;;;32.42;16.15;;;;;;;6.07;45.92;98855.06;5074560;28;20036;-58
2023/03/09 07:03:32;;;;;;;27.42;13.52;;;;;;;6.11;45.97;98857.53;5074072;28;20483;-58
2023/03/09 07:05:57;;;;;;;23.92;13.05;;;;;;;6.20;45.80;98868.59;5091875;28;20032;-59
2023/03/09 07:08:23;;;;;;;21.38;11.93;;;;;;;6.29;45.44;98869.19;5089608;28;20052;-58
2023/03/09 07:10:49;;;;;;;17.30;10.02;;;;;;;6.28;45.42;98867.50;5092760;28;20040;-59
2023/03/09 07:13:15;;;;;;;16.42;8.80;;;;;;;6.20;45.53;98868.59;5094139;28;20119;-59
2023/03/09 07:15:40;;;;;;;13.90;7.85;;;;;;;6.30;45.28;98870.03;5094269;28;20040;-59
2023/03/09 07:18:06;;;;;;;21.00;10.70;;;;;;;6.43;45.07;98874.03;5094367;28;20050;-59
2023/03/09 07:20:32;;;;;;;19.85;9.73;;;;;;;6.56;44.90;98872.78;5094181;28;20032;-59
2023/03/09 07:22:57;;;;;;;12.10;6.80;;;;;;;6.55;44.73;98871.06;5093961;28;20032;-59
2023/03/09 07:25:23;;;;;;;14.10;6.30;;;;;;;6.65;44.56;98875.09;5076097;28;20039;-59
2023/03/09 07:27:49;;;;;;;20.38;6.05;;;;;;;6.81;44.51;98872.03;5094122;28;20040;-59
2023/03/09 07:30:14;;;;;;;11.70;5.63;;;;;;;6.87;44.05;98877.09;5094071;28;20040;-58
2023/03/09 07:32:40;;;;;;;12.57;5.20;;;;;;;7.01;43.99;98879.25;5093944;28;20032;-58
2023/03/09 07:35:07;;;;;;;11.63;5.55;;;;;;;6.96;43.90;98886.38;5092670;28;20054;-59
2023/03/09 07:37:32;;;;;;;13.18;6.35;;;;;;;6.96;44.02;98883.78;5092120;28;20131;-59
2023/03/09 07:39:59;;;;;;;10.40;5.30;;;;;;;7.07;43.75;98882.53;5093720;28;20059;-58
2023/03/09 07:42:25;;;;;;;9.18;4.50;;;;;;;7.11;43.79;98889.38;5092570;28;20032;-59
2023/03/09 07:44:51;;;;;;;10.48;4.65;;;;;;;7.24;43.58;98886.38;5092840;28;20111;-58
2023/03/09 07:47:17;;;;;;;10.45;5.35;;;;;;;7.47;43.07;98889.13;5093774;28;20095;-59
2023/03/09 07:49:42;;;;;;;12.70;5.70;;;;;;;7.39;42.58;98888.50;5092581;28;20036;-59
2023/03/09 07:52:08;;;;;;;13.43;5.95;;;;;;;7.47;42.57;98885.66;5093622;28;20091;-59
2023/03/09 07:54:34;;;;;;;11.93;5.88;;;;;;;7.50;42.38;98894.25;5093679;28;20032;-59
2023/03/09 07:57:00;;;;;;;12.68;5.32;;;;;;;7.65;42.17;98893.72;5092447;28;20037;-59
2023/03/09 07:59:26;;;;;;;13.30;5.90;;;;;;;7.71;41.88;98903.13;5093526;28;20406;-59
2023/03/09 08:01:51;;;;;;;13.55;6.20;;;;;;;7.65;41.90;98901.56;5075580;28;20053;-59
2023/03/09 08:04:17;;;;;;;12.43;5.22;;;;;;;7.80;41.30;98901.97;5093420;28;20032;-59
2023/03/09 08:06:43;;;;;;;10.75;4.88;;;;;;;8.07;41.40;98898.41;5093272;28;20032;-59
2023/03/09 08:09:12;;;;;;;15.82;6.93;;;;;;;8.16;40.59;98899.84;5092577;28;20174;-59
2023/03/09 08:11:38;;;;;;;15.43;6.05;;;;;;;8.46;40.50;98902.28;5092289;28;20035;-59
2023/03/09 08:14:03;;;;;;;10.35;4.68;;;;;;;8.51;40.10;98900.38;5093454;28;20039;-59
2023/03/09 08:16:29;;;;;;;10.43;5.45;;;;;;;8.45;39.77;98906.66;5093291;28;20065;-59
2023/03/09 08:18:54;;;;;;;13.27;6.00;;;;;;;8.56;39.49;98899.28;5093449;28;20505;-58
2023/03/09 08:21:20;;;;;;;12.95;5.47;;;;;;;8.67;39.26;98901.50;5094750;28;20028;-57
2023/03/09 08:23:45;;;;;;;14.93;5.88;;;;;;;8.95;38.81;98906.56;5096359;28;20039;-58
2023/03/09 08:26:13;;;;;;;15.43;6.38;;;;;;;9.02;38.53;98901.94;5093612;28;20029;-58
2023/03/09 08:28:39;;;;;;;11.00;5.25;;;;;;;9.27;38.19;98904.44;5096167;28;20082;-58
2023/03/09 08:31:05;;;;;;;11.48;5.18;;;;;;;9.40;37.78;98903.03;5097417;28;20486;-59
2023/03/09 08:33:31;;;;;;;9.93;4.55;;;;;;;9.57;37.22;98911.06;5097250;28;20111;-60
2023/03/09 08:35:57;;;;;;;10.75;4.13;;;;;;;9.47;36.52;98901.88;5097001;28;20093;-59
2023/03/09 08:38:23;;;;;;;10.75;4.22;;;;;;;9.48;36.52;98911.44;5076933;28;20064;-59
2023/03/09 08:40:49;;;;;;;4.35;2.50;;;;;;;9.43;35.80;98918.66;5095118;28;20074;-59
2023/03/09 08:43:14;;;;;;;6.68;2.67;;;;;;;9.55;35.17;98915.53;5097381;28;20032;-59
2023/03/09 08:45:40;;;;;;;11.75;4.70;;;;;;;9.56;34.91;98924.25;5097243;28;20035;-58
2023/03/09 08:48:06;;;;;;;9.32;3.85;;;;;;;9.64;34.83;98924.78;5095877;28;20032;-60
2023/03/09 08:50:32;;;;;;;6.70;3.63;;;;;;;9.66;34.26;98929.97;5095582;28;20445;-58
2023/03/09 08:52:57;;;;;;;9.90;4.80;;;;;;;9.57;34.25;98939.06;5097248;28;20032;-59
2023/03/09 08:55:23;;;;;;;8.32;3.75;;;;;;;9.52;34.14;98928.75;5096893;28;20115;-60
2023/03/09 08:57:48;;;;;;;12.80;8.57;;;;;;;9.52;33.99;98939.25;5096811;28;20467;-60
2023/03/09 09:00:14;;;;;;;9.60;4.97;;;;;;;9.53;33.91;98938.31;5097128;28;20040;-59
2023/03/09 09:02:41;;;;;;;8.60;3.88;;;;;;;9.45;33.91;98943.00;5097065;28;20024;-59
2023/03/09 09:05:08;;;;;;;8.10;2.90;;;;;;;9.22;33.05;98937.84;5096673;28;20111;-60
2023/03/09 09:07:34;;;;;;;9.90;3.85;;;;;;;9.20;33.54;98958.00;5096941;28;20119;-60
2023/03/09 09:10:00;;;;;;;22.00;11.00;;;;;;;8.97;34.08;98946.63;5096860;28;20031;-59
2023/03/09 09:12:27;;;;;;;10.35;4.78;;;;;;;9.10;34.00;98955.75;5096588;28;20092;-59
2023/03/09 09:14:54;;;;;;;28.40;10.88;;;;;;;9.12;33.79;98956.53;5095558;28;20032;-60
2023/03/09 09:17:19;;;;;;;33.25;10.85;;;;;;;9.12;33.35;98956.53;5096672;28;20036;-60
2023/03/09 09:19:44;;;;;;;36.25;11.77;;;;;;;9.08;33.38;98948.84;5095160;28;20047;-60
2023/03/09 09:22:10;;;;;;;35.47;11.35;;;;;;;9.19;33.40;98951.91;5095456;28;20360;-59
2023/03/09 09:24:36;;;;;;;24.02;8.20;;;;;;;9.40;33.06;98952.84;5095375;28;20028;-59
2023/03/09 09:27:07;;;;;;;12.63;5.00;;;;;;;9.29;31.47;98955.03;5095079;28;20036;-59
2023/03/09 09:29:33;;;;;;;14.52;4.68;;;;;;;9.36;32.50;98962.59;5096552;28;20036;-60
2023/03/09 09:32:00;;;;;;;21.17;7.88;;;;;;;9.43;32.36;98960.59;5093490;28;20097;-59
2023/03/09 09:34:32;;;;;;;42.15;10.80;;;;;;;9.58;31.66;98967.84;5091605;28;20123;-60
2023/03/09 09:37:00;;;;;;;22.02;7.20;;;;;;;9.66;32.77;98969.31;5096107;28;20471;-59
2023/03/09 09:39:30;;;;;;;14.98;5.38;;;;;;;9.61;32.85;98977.34;5096181;28;20115;-60
2023/03/09 09:42:02;;;;;;;9.18;3.85;;;;;;;9.52;32.29;98970.72;5095940;28;20119;-60
2023/03/09 09:44:40;;;;;;;29.95;9.00;;;;;;;9.78;32.52;98972.28;5094760;28;20039;-60
2023/03/09 09:47:11;;;;;;;17.77;6.82;;;;;;;9.91;33.00;98979.66;5095988;28;20522;-60
2023/03/09 09:49:44;;;;;;;23.27;7.60;;;;;;;9.98;31.53;98979.34;5094778;28;20064;-60
2023/03/09 09:52:15;;;;;;;15.93;6.05;;;;;;;10.06;30.95;98981.66;5096102;28;20032;-59
2023/03/09 09:54:48;;;;;;;15.48;6.18;;;;;;;9.71;31.18;98980.47;5095559;28;20089;-58
2023/03/09 09:57:36;;;;;;;10.18;4.50;;;;;;;9.78;30.80;98976.69;5095737;28;20038;-59
2023/03/09 10:00:17;;;;;;;9.35;4.43;;;;;;;9.82;30.72;98980.91;5094539;28;20107;-59
2023/03/09 10:03:10;;;;;;;13.00;5.40;;;;;;;9.88;30.21;98988.50;5094456;28;20441;-58
2023/03/09 10:05:48;;;;;;;6.55;3.30;;;;;;;9.90;29.53;98991.94;5095355;28;20399;-60
2023/03/09 10:08:32;;;;;;;5.05;2.17;;;;;;;9.93;29.06;98986.53;5094294;28;20069;-60
2023/03/09 10:11:06;;;;;;;9.68;2.97;;;;;;;9.88;29.30;98993.75;5094517;28;20039;-60
2023/03/09 10:13:37;;;;;;;4.28;1.80;;;;;;;9.96;29.43;98996.91;5095589;28;20119;-60
2023/03/09 10:16:10;;;;;;;7.20;2.92;;;;;;;10.07;29.63;98996.47;5088502;28;20032;-59
2023/03/09 10:18:45;;;;;;;10.57;3.90;;;;;;;10.02;28.59;98994.06;5094369;28;20050;-60
2023/03/09 10:21:20;;;;;;;6.70;2.97;;;;;;;10.24;27.75;98999.25;5095855;28;20028;-60
2023/03/09 10:23:46;;;;;;;2.97;2.03;;;;;;;10.09;28.33;98998.13;5094049;28;20120;-60
2023/03/09 10:26:11;;;;;;;5.50;2.40;;;;;;;10.01;28.59;98992.31;5090927;28;20123;-60
2023/03/09 10:28:42;;;;;;;3.15;2.20;;;;;;;10.32;28.75;98997.19;5093937;28;20039;-60
2023/03/09 10:31:18;;;;;;;5.00;2.05;;;;;;;10.26;26.94;98994.81;5088896;28;20035;-59
2023/03/09 10:33:48;;;;;;;3.83;1.50;;;;;;;10.24;28.70;99001.00;5075029;28;20029;-60
2023/03/09 10:36:36;;;;;;;5.32;1.40;;;;;;;10.14;26.56;98999.72;5089970;28;20157;-59
2023/03/09 10:39:12;;;;;;;4.00;1.00;;;;;;;10.36;27.02;98997.91;5082118;28;20036;-60
2023/03/09 10:41:39;;;;;;;2.15;0.80;;;;;;;10.15;27.21;99004.03;5079971;28;20043;-60
2023/03/09 10:44:05;;;;;;;1.65;0.82;;;;;;;10.25;28.59;99018.50;5094209;28;20035;-60
2023/03/09 10:46:31;;;;;;;2.13;0.88;;;;;;;10.28;28.57;99007.88;5095493;28;20387;-60
2023/03/09 10:49:14;;;;;;;2.55;0.95;;;;;;;10.30;26.79;99017.41;5095138;28;20032;-59
2023/03/09 10:51:53;;;;;;;3.40;1.50;;;;;;;10.26;29.23;99020.22;5094424;28;20406;-60
2023/03/09 10:54:27;;;;;;;3.78;1.27;;;;;;;10.34;26.99;99033.88;5095132;28;20048;-59
2023/03/09 10:56:53;;;;;;;5.05;2.17;;;;;;;10.54;28.74;99033.03;5095259;28;20039;-60
2023/03/09 10:59:27;;;;;;;5.07;2.42;;;;;;;10.12;26.58;99029.47;5094499;28;20032;-59
2023/03/09 11:01:57;;;;;;;4.53;2.78;;;;;;;10.40;27.87;99033.63;5089040;28;20028;-59
2023/03/09 11:04:22;;;;;;;3.45;2.25;;;;;;;10.31;28.10;99034.00;5104294;28;20133;-60
2023/03/09 11:06:52;;;;;;;3.95;1.45;;;;;;;10.36;27.23;99037.28;5115117;28;20066;-62
2023/03/09 11:09:38;;;;;;;3.38;1.60;;;;;;;10.23;27.39;99036.91;5114974;28;20042;-60
2023/03/09 11:12:10;;;;;;;3.33;1.52;;;;;;;10.18;27.03;99027.53;5112932;28;20074;-60
2023/03/09 11:14:48;;;;;;;4.07;1.45;;;;;;;10.34;25.94;99032.13;5113613;28;20092;-60
2023/03/09 11:17:32;;;;;;;8.25;2.42;;;;;;;10.54;25.69;99031.25;5114767;28;20032;-60
2023/03/09 11:20:12;;;;;;;4.20;1.45;;;;;;;10.57;24.45;99039.03;5114539;28;20506;-60
2023/03/09 11:22:45;;;;;;;5.10;2.25;;;;;;;10.45;24.40;99046.53;5114325;28;20050;-60
2023/03/09 11:25:17;;;;;;;5.03;2.27;;;;;;;10.51;26.06;99052.41;5113401;28;20081;-63
2023/03/09 11:27:51;;;;;;;5.43;1.30;;;;;;;10.36;26.03;99053.03;5112314;28;20122;-59
2023/03/09 11:30:21;;;;;;;4.20;1.10;;;;;;;10.47;26.61;99045.56;5091398;28;20267;-61
2023/03/09 11:32:47;;;;;;;8.13;2.42;;;;;;;10.67;27.07;99042.09;5093206;28;20036;-59
2023/03/09 11:35:14;;;;;;;4.88;1.90;;;;;;;10.78;26.91;99033.75;5092934;28;20464;-59